Etusivu
METAR-TAF:

METAR-TAF

Lentoasemat :

Huntsville, Alabama, Yhdysvallat

Leveyspiiri: 34-51-41N, Pituuspiiri: 086-33-26W, korkeus merenpinnasta: 230 m

Tämänhetkinen sää

Tämä raportti tehtiin 32 minuuttia sitten, kello 23.55 UTC
tyyntä
Lämpötila 7°C
Kosteus 93%
Ilmanpaine 1015 hPa
Näkyvyys: 16.1 km
Hajanaisia pilviä 1100 ft:n korkeudessa
Pilvistä 2000 ft:n korkeudessa

METAR: KMDQ 212355Z AUTO 00000KT 10SM SCT011 OVC020 07/06 A2997 RMK A02 T00690065 10083 20066 400830045

Aika: 18:27 (00:27 UTC)


TAF: puuttuu

Säähavainnot ja -ennusteet yli 4000 lentoasemalta (METAR- ja TAF-raportit).

Käytössä olevat sääasemat on merkitty karttaan keltaisilla ja punaisilla pisteillä.

Aseta hiiri pisteen päälle nähdäksesi sääaseman nimen.

Klikkaa sitten nähdäksesi säähavainnot ja -ennusteet.

Kartan vaihtaminen: klikkaa mustalla rastilla varustettuja vihreitä pisteitä, niin voit zoomata sisään; viivalla varustettua vihreää pistettä, niin voit zoomata ulos tai vihreitä nuolia, niin pääset viereisille kartoille.


METAR-TAF: